Main page
METAR-TAF:

METAR-TAF

Airports :

San Fernando, Argentina

San Fernando Airport

latitude: 34-27-11S, longitude: 058-35-23W, elevation: 3 m

Current weather observation

The report was made 1 hour and 13 minutes ago, at 08:00 UTC
Wind 8 kt from the Northeast
Temperature 21°C
Humidity 78%
Pressure 1014 hPa
Visibility 10 km or more
no clouds below 1500 m and no cumulonimbus

METAR: SADF 260800Z 05008KT CAVOK 21/17 Q1014

Time: 06:13 (09:13 UTC)

Forecast

The report was made 4 hours and 13 minutes ago, at 05:00 UTC
Forecast valid from 26 at 06 UTC to 27 at 06 UTC
Wind 10 kt from the Northeast
Visibility 10 km or more
no clouds below 1500 m and no cumulonimbus
Becoming
from 26 at 07 UTC to 26 at 09 UTC
Visibility: 5000 m
mist
Becoming
from 26 at 13 UTC to 26 at 15 UTC
Visibility 10 km or more
Scattered clouds at a height of 2500 ft
Scattered clouds at a height of 10000 ft

TAF: SADF 260500Z 2606/2706 05010KT CAVOK TX27/2618Z TN20/2610Z BECMG 2607/2609 5000 BR NSC BECMG 2613/2615 9999 SCT025 SCT100

Weather observations and forecasts of more than 4000 airports (METAR and TAF reports).

The available stations are represented by yellow and red dots on the map.

Hover mouse over dot to see the name of the station.

Then click to see weather observations and forecasts.

To change the map : click on the green buttons with a black cross to zoom in, on the green button with a dash to zoom out, or on the green arrows for adjacent maps.


METAR-TAF: